Observation data for Lamesa on 08/10/2020      Previous  Date       Current Mesonet Observations  Soil Data  Daily Summary Page  Observations in Plain Language
KLES 100500Z 17007KT 28/12 A3006 RMK A01 T02800118  RH  038%=      5-min Rain = 0
KLES 100505Z 16008KT 28/12 A3006 RMK A01 T02790119  RH  039%=      5-min Rain = 0
KLES 100510Z 16007KT 28/12 A3006 RMK A01 T02780119  RH  039%=      5-min Rain = 0
KLES 100515Z 16007KT 28/12 A3006 RMK A01 T02780119  RH  039%=      5-min Rain = 0
KLES 100520Z 16007KT 28/12 A3006 RMK A01 T02770120  RH  039%=      5-min Rain = 0
KLES 100525Z 16007KT 28/12 A3006 RMK A01 T02760121  RH  040%=      5-min Rain = 0
KLES 100530Z 16007KT 27/12 A3006 RMK A01 T02740122  RH  040%=      5-min Rain = 0
KLES 100535Z 16007KT 27/12 A3006 RMK A01 T02730123  RH  041%=      5-min Rain = 0
KLES 100540Z 16006KT 27/12 A3006 RMK A01 T02710124  RH  042%=      5-min Rain = 0
KLES 100545Z 16006KT 27/13 A3006 RMK A01 T02680125  RH  043%=      5-min Rain = 0
KLES 100550Z 16006KT 27/13 A3006 RMK A01 T02670127  RH  044%=      5-min Rain = 0
KLES 100555Z 16007KT 27/13 A3006 RMK A01 T02650127  RH  044%=      5-min Rain = 0
KLES 100600Z 16007KT 27/13 A3006 RMK A01 T02650128  RH  045%=      5-min Rain = 0
KLES 100605Z 16007KT 27/13 A3006 RMK A01 T02650129  RH  045%=      5-min Rain = 0
KLES 100610Z 16007KT 27/13 A3006 RMK A01 T02660130  RH  045%=      5-min Rain = 0
KLES 100615Z 16007KT 27/13 A3006 RMK A01 T02660130  RH  045%=      5-min Rain = 0
KLES 100620Z 16008KT 27/13 A3006 RMK A01 T02660131  RH  045%=      5-min Rain = 0
KLES 100625Z 16010KT 27/13 A3005 RMK A01 T02660131  RH  045%=      5-min Rain = 0
KLES 100630Z 15011KT 27/13 A3005 RMK A01 T02670131  RH  045%=      5-min Rain = 0
KLES 100635Z 15011KT 27/13 A3005 RMK A01 T02670131  RH  045%=      5-min Rain = 0
KLES 100640Z 15010KT 27/13 A3005 RMK A01 T02660131  RH  045%=      5-min Rain = 0
KLES 100645Z 15009KT 26/13 A3004 RMK A01 T02640133  RH  046%=      5-min Rain = 0
KLES 100650Z 15008KT 26/13 A3004 RMK A01 T02620132  RH  046%=      5-min Rain = 0
KLES 100655Z 16007KT 26/13 A3004 RMK A01 T02590132  RH  047%=      5-min Rain = 0
KLES 100700Z 16008KT 26/13 A3004 RMK A01 T02570131  RH  047%=      5-min Rain = 0
KLES 100705Z 16007KT 26/13 A3004 RMK A01 T02570130  RH  047%=      5-min Rain = 0
KLES 100710Z 17005KT 26/13 A3005 RMK A01 T02560130  RH  047%=      5-min Rain = 0
KLES 100715Z 18005KT 25/13 A3005 RMK A01 T02540131  RH  048%=      5-min Rain = 0
KLES 100720Z 18006G11KT 25/13 A3005 RMK A01 T02520132  RH  049%=      5-min Rain = 0
KLES 100725Z 18007KT 25/13 A3006 RMK A01 T02540134  RH  049%=      5-min Rain = 0
KLES 100730Z 18007KT 26/14 A3006 RMK A01 T02550135  RH  050%=      5-min Rain = 0
KLES 100735Z 18007KT 26/14 A3006 RMK A01 T02560137  RH  050%=      5-min Rain = 0
KLES 100740Z 18009KT 26/14 A3006 RMK A01 T02560138  RH  050%=      5-min Rain = 0
KLES 100745Z 17009KT 26/14 A3006 RMK A01 T02560138  RH  050%=      5-min Rain = 0
KLES 100750Z 17008KT 26/14 A3006 RMK A01 T02550138  RH  050%=      5-min Rain = 0
KLES 100755Z 17008KT 25/14 A3006 RMK A01 T02540139  RH  051%=      5-min Rain = 0
KLES 100800Z 17008KT 25/14 A3006 RMK A01 T02540139  RH  051%=      5-min Rain = 0
KLES 100805Z 17009KT 26/14 A3006 RMK A01 T02550140  RH  051%=      5-min Rain = 0
KLES 100810Z 18011G16KT 26/14 A3006 RMK A01 T02560141  RH  051%=      5-min Rain = 0
KLES 100815Z 18011KT 26/14 A3006 RMK A01 T02570141  RH  051%=      5-min Rain = 0
KLES 100820Z 18009KT 26/14 A3006 RMK A01 T02560142  RH  051%=      5-min Rain = 0
KLES 100825Z 17009KT 25/14 A3006 RMK A01 T02540142  RH  052%=      5-min Rain = 0
KLES 100830Z 17009KT 25/14 A3006 RMK A01 T02530142  RH  052%=      5-min Rain = 0
KLES 100835Z 17009KT 25/14 A3005 RMK A01 T02530142  RH  052%=      5-min Rain = 0
KLES 100840Z 17008KT 25/14 A3005 RMK A01 T02530142  RH  052%=      5-min Rain = 0
KLES 100845Z 17007KT 25/14 A3005 RMK A01 T02510142  RH  053%=      5-min Rain = 0
KLES 100850Z 17007KT 25/14 A3005 RMK A01 T02500142  RH  053%=      5-min Rain = 0
KLES 100855Z 17007KT 25/14 A3005 RMK A01 T02480142  RH  054%=      5-min Rain = 0
KLES 100900Z 16007KT 25/14 A3005 RMK A01 T02470142  RH  054%=      5-min Rain = 0
KLES 100905Z 16008KT 25/14 A3005 RMK A01 T02470142  RH  054%=      5-min Rain = 0
KLES 100910Z 16009KT 25/14 A3005 RMK A01 T02470143  RH  055%=      5-min Rain = 0
KLES 100915Z 16008KT 25/14 A3005 RMK A01 T02470143  RH  054%=      5-min Rain = 0
KLES 100920Z 16007KT 25/14 A3005 RMK A01 T02460143  RH  055%=      5-min Rain = 0
KLES 100925Z 16007KT 25/14 A3006 RMK A01 T02450143  RH  055%=      5-min Rain = 0
KLES 100930Z 16007KT 25/14 A3006 RMK A01 T02450143  RH  055%=      5-min Rain = 0
KLES 100935Z 16007KT 25/14 A3006 RMK A01 T02450143  RH  055%=      5-min Rain = 0
KLES 100940Z 16008KT 25/14 A3006 RMK A01 T02450143  RH  055%=      5-min Rain = 0
KLES 100945Z 16007KT 25/14 A3006 RMK A01 T02450143  RH  055%=      5-min Rain = 0
KLES 100950Z 15007KT 24/14 A3006 RMK A01 T02440143  RH  055%=      5-min Rain = 0
KLES 100955Z 15006KT 24/14 A3005 RMK A01 T02430142  RH  056%=      5-min Rain = 0
KLES 101000Z 16007KT 24/14 A3006 RMK A01 T02410142  RH  056%=      5-min Rain = 0
KLES 101005Z 16007KT 24/14 A3006 RMK A01 T02410143  RH  057%=      5-min Rain = 0
KLES 101010Z 16006KT 24/14 A3006 RMK A01 T02400143  RH  057%=      5-min Rain = 0
KLES 101015Z 15005KT 24/14 A3006 RMK A01 T02380142  RH  057%=      5-min Rain = 0
KLES 101020Z 15006KT 24/14 A3006 RMK A01 T02370143  RH  058%=      5-min Rain = 0
KLES 101025Z 14006KT 24/14 A3005 RMK A01 T02350144  RH  059%=      5-min Rain = 0
KLES 101030Z 14006KT 23/14 A3005 RMK A01 T02330144  RH  060%=      5-min Rain = 0
KLES 101035Z 14006KT 23/14 A3005 RMK A01 T02310144  RH  061%=      5-min Rain = 0
KLES 101040Z 14006KT 23/14 A3005 RMK A01 T02300144  RH  061%=      5-min Rain = 0
KLES 101045Z 14006KT 23/15 A3005 RMK A01 T02290145  RH  061%=      5-min Rain = 0
KLES 101050Z 14006KT 23/14 A3005 RMK A01 T02280144  RH  062%=      5-min Rain = 0
KLES 101055Z 14006KT 23/14 A3005 RMK A01 T02270144  RH  062%=      5-min Rain = 0
KLES 101100Z 14006KT 23/14 A3005 RMK A01 T02260144  RH  062%=      5-min Rain = 0
KLES 101105Z 14006KT 23/14 A3005 RMK A01 T02260144  RH  062%=      5-min Rain = 0
KLES 101110Z 14006KT 22/14 A3005 RMK A01 T02240144  RH  063%=      5-min Rain = 0
KLES 101115Z 15007KT 23/15 A3005 RMK A01 T02250145  RH  063%=      5-min Rain = 0
KLES 101120Z 15006KT 23/15 A3005 RMK A01 T02250145  RH  063%=      5-min Rain = 0
KLES 101125Z 15005KT 22/15 A3006 RMK A01 T02240145  RH  063%=      5-min Rain = 0
KLES 101130Z 14004KT 22/15 A3006 RMK A01 T02220145  RH  064%=      5-min Rain = 0
KLES 101135Z 15004KT 22/15 A3006 RMK A01 T02210145  RH  065%=      5-min Rain = 0
KLES 101140Z 15005KT 22/15 A3006 RMK A01 T02210145  RH  065%=      5-min Rain = 0
KLES 101145Z 16005KT 22/15 A3006 RMK A01 T02200145  RH  065%=      5-min Rain = 0
KLES 101150Z 16005KT 22/15 A3006 RMK A01 T02180145  RH  066%=      5-min Rain = 0
KLES 101155Z 15005KT 22/15 A3006 RMK A01 T02160145  RH  066%=      5-min Rain = 0
KLES 101200Z 14006KT 22/15 A3006 RMK A01 T02170145  RH  066%=      5-min Rain = 0
KLES 101205Z 14006KT 22/15 A3006 RMK A01 T02180146  RH  066%=      5-min Rain = 0
KLES 101210Z 14005KT 22/15 A3006 RMK A01 T02180148  RH  067%=      5-min Rain = 0
KLES 101215Z 14005KT 22/15 A3006 RMK A01 T02180148  RH  067%=      5-min Rain = 0
KLES 101220Z 14006KT 22/15 A3006 RMK A01 T02180149  RH  068%=      5-min Rain = 0
KLES 101225Z 14006KT 22/15 A3006 RMK A01 T02180149  RH  068%=      5-min Rain = 0
KLES 101230Z 14007KT 22/15 A3006 RMK A01 T02180150  RH  068%=      5-min Rain = 0
KLES 101235Z 14008KT 22/15 A3006 RMK A01 T02190151  RH  068%=      5-min Rain = 0
KLES 101240Z 14007KT 22/15 A3006 RMK A01 T02210152  RH  068%=      5-min Rain = 0
KLES 101245Z 14008KT 22/15 A3006 RMK A01 T02220152  RH  068%=      5-min Rain = 0
KLES 101250Z 14007KT 22/15 A3006 RMK A01 T02230152  RH  067%=      5-min Rain = 0
KLES 101255Z 14008KT 22/15 A3006 RMK A01 T02240153  RH  067%=      5-min Rain = 0
KLES 101300Z 14007KT 23/15 A3007 RMK A01 T02270153  RH  066%=      5-min Rain = 0
KLES 101305Z 14007KT 23/15 A3007 RMK A01 T02290154  RH  065%=      5-min Rain = 0
KLES 101310Z 14008KT 23/16 A3007 RMK A01 T02320155  RH  065%=      5-min Rain = 0
KLES 101315Z 14008KT 23/16 A3007 RMK A01 T02340157  RH  065%=      5-min Rain = 0
KLES 101320Z 14009KT 24/16 A3007 RMK A01 T02370158  RH  064%=      5-min Rain = 0
KLES 101325Z 14009KT 24/16 A3007 RMK A01 T02380160  RH  064%=      5-min Rain = 0
KLES 101330Z 15008KT 24/16 A3007 RMK A01 T02410161  RH  064%=      5-min Rain = 0
KLES 101335Z 15008KT 24/16 A3008 RMK A01 T02430162  RH  064%=      5-min Rain = 0
KLES 101340Z 15009KT 25/16 A3008 RMK A01 T02450163  RH  063%=      5-min Rain = 0
KLES 101345Z 16011G17KT 25/16 A3008 RMK A01 T02460164  RH  063%=      5-min Rain = 0
KLES 101350Z 15012G17KT 25/17 A3008 RMK A01 T02470166  RH  063%=      5-min Rain = 0
KLES 101355Z 15014KT 25/17 A3008 RMK A01 T02480166  RH  063%=      5-min Rain = 0
KLES 101400Z 16014KT 25/17 A3008 RMK A01 T02480167  RH  064%=      5-min Rain = 0
KLES 101405Z 16014KT 25/17 A3008 RMK A01 T02490168  RH  064%=      5-min Rain = 0
KLES 101410Z 16014KT 25/17 A3008 RMK A01 T02500168  RH  064%=      5-min Rain = 0
KLES 101415Z 16013G18KT 25/17 A3009 RMK A01 T02520170  RH  063%=      5-min Rain = 0
KLES 101420Z 17014G21KT 26/17 A3009 RMK A01 T02550171  RH  063%=      5-min Rain = 0
KLES 101425Z 18014G20KT 26/17 A3009 RMK A01 T02560173  RH  063%=      5-min Rain = 0
KLES 101430Z 16013KT 26/17 A3009 RMK A01 T02590173  RH  062%=      5-min Rain = 0
KLES 101435Z 16014KT 26/17 A3009 RMK A01 T02600172  RH  061%=      5-min Rain = 0
KLES 101440Z 16013G18KT 26/17 A3009 RMK A01 T02600171  RH  061%=      5-min Rain = 0
KLES 101445Z 17013KT 26/17 A3009 RMK A01 T02620172  RH  061%=      5-min Rain = 0
KLES 101450Z 16013G18KT 26/17 A3009 RMK A01 T02640172  RH  060%=      5-min Rain = 0
KLES 101455Z 16014G19KT 27/17 A3009 RMK A01 T02650173  RH  060%=      5-min Rain = 0
KLES 101500Z 16015G20KT 27/17 A3009 RMK A01 T02660173  RH  060%=      5-min Rain = 0
KLES 101505Z 16014G19KT 27/17 A3009 RMK A01 T02670174  RH  060%=      5-min Rain = 0
KLES 101510Z 17013G18KT 27/18 A3009 RMK A01 T02700175  RH  059%=      5-min Rain = 0
KLES 101515Z 17014KT 27/18 A3009 RMK A01 T02710175  RH  058%=      5-min Rain = 0
KLES 101520Z 17014KT 27/18 A3009 RMK A01 T02730175  RH  058%=      5-min Rain = 0
KLES 101525Z 16014G19KT 27/17 A3009 RMK A01 T02720174  RH  058%=      5-min Rain = 0
KLES 101530Z 16014KT 27/17 A3009 RMK A01 T02740174  RH  057%=      5-min Rain = 0
KLES 101535Z 16014G19KT 28/18 A3009 RMK A01 T02770175  RH  056%=      5-min Rain = 0
KLES 101540Z 17013G19KT 28/18 A3009 RMK A01 T02810175  RH  056%=      5-min Rain = 0
KLES 101545Z 18014G20KT 28/18 A3009 RMK A01 T02810175  RH  055%=      5-min Rain = 0
KLES 101550Z 18013G19KT 28/18 A3009 RMK A01 T02820176  RH  055%=      5-min Rain = 0
KLES 101555Z 17012G18KT 29/18 A3009 RMK A01 T02860175  RH  054%=      5-min Rain = 0
KLES 101600Z 16013KT 29/18 A3009 RMK A01 T02860175  RH  054%=      5-min Rain = 0
KLES 101605Z 16013KT 29/18 A3008 RMK A01 T02870175  RH  053%=      5-min Rain = 0
KLES 101610Z 17012KT 29/18 A3008 RMK A01 T02900176  RH  053%=      5-min Rain = 0
KLES 101615Z 17012G19KT 29/18 A3008 RMK A01 T02940176  RH  052%=      5-min Rain = 0
KLES 101620Z 18014G19KT 29/17 A3009 RMK A01 T02940174  RH  051%=      5-min Rain = 0
KLES 101625Z 17014G19KT 29/17 A3009 RMK A01 T02920174  RH  051%=      5-min Rain = 0
KLES 101630Z 16013KT 30/17 A3008 RMK A01 T02950174  RH  051%=      5-min Rain = 0
KLES 101635Z 18012G17KT 30/18 A3008 RMK A01 T02950175  RH  051%=      5-min Rain = 0
KLES 101640Z 17012KT 30/17 A3008 RMK A01 T02980174  RH  050%=      5-min Rain = 0
KLES 101645Z 16012G19KT 30/17 A3008 RMK A01 T03000174  RH  049%=      5-min Rain = 0
KLES 101650Z 17013G18KT 30/17 A3008 RMK A01 T03030174  RH  048%=      5-min Rain = 0
KLES 101655Z 16013KT 30/17 A3007 RMK A01 T03020173  RH  048%=      5-min Rain = 0
KLES 101700Z 16012G17KT 31/17 A3007 RMK A01 T03060173  RH  047%=      5-min Rain = 0
KLES 101705Z 18012G17KT 31/17 A3007 RMK A01 T03080172  RH  047%=      5-min Rain = 0
KLES 101710Z 15013G24KT 31/17 A3007 RMK A01 T03100171  RH  046%=      5-min Rain = 0
KLES 101715Z 15012G17KT 31/17 A3007 RMK A01 T03100168  RH  045%=      5-min Rain = 0
KLES 101720Z 16012G17KT 31/17 A3007 RMK A01 T03120168  RH  044%=      5-min Rain = 0
KLES 101725Z 16012KT 32/17 A3007 RMK A01 T03150170  RH  044%=      5-min Rain = 0
KLES 101730Z 16013G19KT 32/17 A3007 RMK A01 T03170168  RH  043%=      5-min Rain = 0
KLES 101735Z 15012KT 32/17 A3006 RMK A01 T03190166  RH  042%=      5-min Rain = 0
KLES 101740Z 16011G16KT 32/17 A3006 RMK A01 T03220165  RH  041%=      5-min Rain = 0
KLES 101745Z 15012G18KT 32/17 A3006 RMK A01 T03220165  RH  041%=      5-min Rain = 0
KLES 101750Z 16012G18KT 32/17 A3006 RMK A01 T03220165  RH  041%=      5-min Rain = 0
KLES 101755Z 15011G16KT 33/16 A3006 RMK A01 T03250163  RH  040%=      5-min Rain = 0
KLES 101800Z 17010G15KT 33/16 A3006 RMK A01 T03250161  RH  039%=      5-min Rain = 0
KLES 101805Z 16011KT 33/16 A3006 RMK A01 T03280158  RH  038%=      5-min Rain = 0
KLES 101810Z 15011KT 33/16 A3006 RMK A01 T03280156  RH  037%=      5-min Rain = 0
KLES 101815Z 15011G17KT 33/16 A3005 RMK A01 T03310158  RH  037%=      5-min Rain = 0
KLES 101820Z 16011G17KT 33/16 A3005 RMK A01 T03310156  RH  037%=      5-min Rain = 0
KLES 101825Z 15011G16KT 33/16 A3005 RMK A01 T03320157  RH  037%=      5-min Rain = 0
KLES 101830Z 14011G16KT 33/16 A3005 RMK A01 T03320156  RH  037%=      5-min Rain = 0
KLES 101835Z 16012G18KT 34/15 A3004 RMK A01 T03370152  RH  034%=      5-min Rain = 0
KLES 101840Z 15011KT 34/15 A3004 RMK A01 T03360149  RH  034%=      5-min Rain = 0
KLES 101845Z 15011G16KT 34/15 A3004 RMK A01 T03380148  RH  033%=      5-min Rain = 0
KLES 101850Z 14011KT 34/15 A3004 RMK A01 T03430148  RH  033%=      5-min Rain = 0
KLES 101855Z 14011KT 35/15 A3004 RMK A01 T03450147  RH  032%=      5-min Rain = 0
KLES 101900Z 15011KT 35/15 A3003 RMK A01 T03460147  RH  032%=      5-min Rain = 0
KLES 101905Z 15011G16KT 35/14 A3003 RMK A01 T03480141  RH  030%=      5-min Rain = 0
KLES 101910Z 14012G19KT 35/14 A3003 RMK A01 T03480142  RH  030%=      5-min Rain = 0
KLES 101915Z 16011G17KT 34/14 A3003 RMK A01 T03440141  RH  031%=      5-min Rain = 0
KLES 101920Z 15013G18KT 35/14 A3003 RMK A01 T03490141  RH  030%=      5-min Rain = 0
KLES 101925Z 15012KT 35/14 A3003 RMK A01 T03530139  RH  029%=      5-min Rain = 0
KLES 101930Z 15010G15KT 35/14 A3002 RMK A01 T03520136  RH  029%=      5-min Rain = 0
KLES 101935Z 17012KT 35/13 A3002 RMK A01 T03530131  RH  027%=      5-min Rain = 0
KLES 101940Z 17008G13KT 35/13 A3002 RMK A01 T03540131  RH  027%=      5-min Rain = 0
KLES 101945Z 17011KT 36/13 A3002 RMK A01 T03580126  RH  026%=      5-min Rain = 0
KLES 101950Z 18010G16KT 36/13 A3001 RMK A01 T03580125  RH  026%=      5-min Rain = 0
KLES 101955Z 18011KT 36/13 A3001 RMK A01 T03600125  RH  025%=      5-min Rain = 0
KLES 102000Z 16010G17KT 37/12 A3001 RMK A01 T03650119  RH  024%=      5-min Rain = 0
KLES 102005Z 15010G16KT 36/12 A3001 RMK A01 T03630124  RH  025%=      5-min Rain = 0
KLES 102010Z 17012KT 36/12 A30 RMK A01 T03600124  RH  025%=      5-min Rain = 0
KLES 102015Z 18011G17KT 36/12 A30 RMK A01 T03610120  RH  024%=      5-min Rain = 0
KLES 102020Z 17008G14KT 36/12 A30 RMK A01 T03610120  RH  024%=      5-min Rain = 0
KLES 102025Z 18011G16KT 36/12 A30 RMK A01 T03640115  RH  023%=      5-min Rain = 0
KLES 102030Z 17009G14KT 37/12 A30 RMK A01 T03660118  RH  023%=      5-min Rain = 0
KLES 102035Z 17010G15KT 37/12 A30 RMK A01 T03670118  RH  023%=      5-min Rain = 0
KLES 102040Z 16009G15KT 37/11 A30 RMK A01 T03650114  RH  023%=      5-min Rain = 0
KLES 102045Z 16012G17KT 37/11 A2999 RMK A01 T03680114  RH  023%=      5-min Rain = 0
KLES 102050Z 14009G14KT 37/11 A2999 RMK A01 T03670111  RH  022%=      5-min Rain = 0
KLES 102055Z 16011G16KT 37/11 A2999 RMK A01 T03680110  RH  022%=      5-min Rain = 0
KLES 102100Z 16008G13KT 37/11 A2999 RMK A01 T03700112  RH  022%=      5-min Rain = 0
KLES 102105Z 17010G15KT 37/11 A2999 RMK A01 T03710113  RH  022%=      5-min Rain = 0
KLES 102110Z 18009G15KT 37/11 A2998 RMK A01 T03720110  RH  022%=      5-min Rain = 0
KLES 102115Z 16010KT 37/11 A2998 RMK A01 T03710108  RH  021%=      5-min Rain = 0
KLES 102120Z 17007KT 37/11 A2998 RMK A01 T03700106  RH  021%=      5-min Rain = 0
KLES 102125Z 17008G14KT 37/11 A2998 RMK A01 T03720108  RH  021%=      5-min Rain = 0
KLES 102130Z 18008G13KT 37/11 A2998 RMK A01 T03730107  RH  021%=      5-min Rain = 0
KLES 102135Z 17009KT 37/11 A2997 RMK A01 T03740108  RH  021%=      5-min Rain = 0
KLES 102140Z 16007G12KT 37/11 A2997 RMK A01 T03740107  RH  021%=      5-min Rain = 0
KLES 102145Z 16008KT 37/11 A2997 RMK A01 T03710106  RH  021%=      5-min Rain = 0
KLES 102150Z 18009G15KT 37/11 A2997 RMK A01 T03710108  RH  021%=      5-min Rain = 0
KLES 102155Z 16011G16KT 37/11 A2997 RMK A01 T03740110  RH  021%=      5-min Rain = 0
KLES 102200Z 16007G14KT 37/11 A2997 RMK A01 T03740108  RH  021%=      5-min Rain = 0
KLES 102205Z 15010G15KT 38/11 A2997 RMK A01 T03770112  RH  021%=      5-min Rain = 0
KLES 102210Z 15010KT 38/11 A2996 RMK A01 T03780109  RH  021%=      5-min Rain = 0
KLES 102215Z 14008KT 38/11 A2996 RMK A01 T03760108  RH  021%=      5-min Rain = 0
KLES 102220Z 14008G15KT 38/11 A2996 RMK A01 T03770109  RH  021%=      5-min Rain = 0
KLES 102225Z 15012KT 38/11 A2996 RMK A01 T03790110  RH  021%=      5-min Rain = 0
KLES 102230Z 15009G14KT 38/11 A2996 RMK A01 T03770110  RH  021%=      5-min Rain = 0
KLES 102235Z 14009KT 38/11 A2996 RMK A01 T03780108  RH  020%=      5-min Rain = 0
KLES 102240Z 14011G16KT 38/11 A2996 RMK A01 T03750108  RH  021%=      5-min Rain = 0
KLES 102245Z 14010G15KT 38/11 A2995 RMK A01 T03770111  RH  021%=      5-min Rain = 0
KLES 102250Z 15010G15KT 38/11 A2995 RMK A01 T03790113  RH  021%=      5-min Rain = 0
KLES 102255Z 18009KT 38/11 A2995 RMK A01 T03780113  RH  021%=      5-min Rain = 0
KLES 102300Z 16010KT 38/11 A2995 RMK A01 T03770107  RH  020%=      5-min Rain = 0
KLES 102305Z 15009KT 38/11 A2995 RMK A01 T03770109  RH  021%=      5-min Rain = 0
KLES 102310Z 16010KT 38/11 A2995 RMK A01 T03750109  RH  021%=      5-min Rain = 0
KLES 102315Z 14008KT 37/11 A2995 RMK A01 T03740105  RH  020%=      5-min Rain = 0
KLES 102320Z 16007G12KT 38/10 A2995 RMK A01 T03760104  RH  020%=      5-min Rain = 0
KLES 102325Z 15007KT 38/11 A2995 RMK A01 T03770106  RH  020%=      5-min Rain = 0
KLES 102330Z 17008KT 37/11 A2995 RMK A01 T03740110  RH  021%=      5-min Rain = 0
KLES 102335Z 16008KT 37/11 A2995 RMK A01 T03720105  RH  021%=      5-min Rain = 0
KLES 102340Z 16008KT 37/11 A2995 RMK A01 T03720108  RH  021%=      5-min Rain = 0
KLES 102345Z 17007G15KT 37/11 A2995 RMK A01 T03730110  RH  021%=      5-min Rain = 0
KLES 102350Z 18008KT 37/11 A2995 RMK A01 T03710108  RH  021%=      5-min Rain = 0
KLES 102355Z 17008G13KT 37/11 A2994 RMK A01 T03700111  RH  022%=      5-min Rain = 0
KLES 110000Z 16009KT 37/11 A2994 RMK A01 T03690109  RH  022%=      5-min Rain = 0
KLES 110005Z 17009G14KT 37/11 A2994 RMK A01 T03680112  RH  022%=      5-min Rain = 0
KLES 110010Z 15010KT 37/11 A2994 RMK A01 T03680110  RH  022%=      5-min Rain = 0
KLES 110015Z 15011G16KT 37/11 A2993 RMK A01 T03680108  RH  022%=      5-min Rain = 0
KLES 110020Z 14011G17KT 37/11 A2993 RMK A01 T03660112  RH  022%=      5-min Rain = 0
KLES 110025Z 15011KT 36/11 A2993 RMK A01 T03640112  RH  023%=      5-min Rain = 0
KLES 110030Z 15010KT 36/11 A2993 RMK A01 T03620110  RH  023%=      5-min Rain = 0
KLES 110035Z 15011G17KT 36/11 A2993 RMK A01 T03600113  RH  023%=      5-min Rain = 0
KLES 110040Z 15012KT 36/11 A2993 RMK A01 T03550113  RH  024%=      5-min Rain = 0
KLES 110045Z 16009KT 35/11 A2993 RMK A01 T03520111  RH  024%=      5-min Rain = 0
KLES 110050Z 17010KT 35/11 A2993 RMK A01 T03480112  RH  025%=      5-min Rain = 0
KLES 110055Z 17010G15KT 35/11 A2993 RMK A01 T03450112  RH  025%=      5-min Rain = 0
KLES 110100Z 16012KT 35/11 A2993 RMK A01 T03450112  RH  025%=      5-min Rain = 0
KLES 110105Z 16011G16KT 35/11 A2993 RMK A01 T03450113  RH  025%=      5-min Rain = 0
KLES 110110Z 16012G17KT 35/11 A2993 RMK A01 T03460112  RH  025%=      5-min Rain = 0
KLES 110115Z 16012G17KT 34/11 A2993 RMK A01 T03440112  RH  025%=      5-min Rain = 0
KLES 110120Z 16010KT 34/11 A2993 RMK A01 T03410114  RH  026%=      5-min Rain = 0
KLES 110125Z 16011KT 34/11 A2993 RMK A01 T03390113  RH  026%=      5-min Rain = 0
KLES 110130Z 15009KT 34/11 A2993 RMK A01 T03380113  RH  026%=      5-min Rain = 0
KLES 110135Z 15009KT 34/11 A2993 RMK A01 T03350113  RH  027%=      5-min Rain = 0
KLES 110140Z 16009KT 33/11 A2993 RMK A01 T03330113  RH  027%=      5-min Rain = 0
KLES 110145Z 15007KT 33/11 A2993 RMK A01 T03290114  RH  028%=      5-min Rain = 0
KLES 110150Z 15007KT 33/11 A2994 RMK A01 T03260114  RH  028%=      5-min Rain = 0
KLES 110155Z 15008KT 32/11 A2994 RMK A01 T03240113  RH  029%=      5-min Rain = 0
KLES 110200Z 15008KT 32/11 A2994 RMK A01 T03220113  RH  029%=      5-min Rain = 0
KLES 110205Z 16008KT 32/11 A2994 RMK A01 T03210113  RH  029%=      5-min Rain = 0
KLES 110210Z 16009KT 32/11 A2994 RMK A01 T03210112  RH  029%=      5-min Rain = 0
KLES 110215Z 16008KT 32/11 A2994 RMK A01 T03200113  RH  029%=      5-min Rain = 0
KLES 110220Z 16008KT 32/12 A2994 RMK A01 T03170115  RH  030%=      5-min Rain = 0
KLES 110225Z 16008KT 31/12 A2994 RMK A01 T03140115  RH  031%=      5-min Rain = 0
KLES 110230Z 16008KT 31/11 A2994 RMK A01 T03120114  RH  031%=      5-min Rain = 0
KLES 110235Z 16008KT 31/12 A2994 RMK A01 T03100115  RH  031%=      5-min Rain = 0
KLES 110240Z 16007KT 31/12 A2995 RMK A01 T03070116  RH  032%=      5-min Rain = 0
KLES 110245Z 16007KT 31/12 A2995 RMK A01 T03050115  RH  032%=      5-min Rain = 0
KLES 110250Z 16007KT 30/12 A2995 RMK A01 T03030115  RH  032%=      5-min Rain = 0
KLES 110255Z 15008KT 30/11 A2995 RMK A01 T03040114  RH  032%=      5-min Rain = 0
KLES 110300Z 15007KT 30/11 A2996 RMK A01 T03040114  RH  032%=      5-min Rain = 0
KLES 110305Z 15008KT 30/11 A2996 RMK A01 T03040114  RH  032%=      5-min Rain = 0
KLES 110310Z 15007KT 30/11 A2996 RMK A01 T03020114  RH  033%=      5-min Rain = 0
KLES 110315Z 15007KT 30/11 A2996 RMK A01 T02990114  RH  033%=      5-min Rain = 0
KLES 110320Z 15008KT 30/11 A2996 RMK A01 T02980114  RH  033%=      5-min Rain = 0
KLES 110325Z 15009KT 30/11 A2996 RMK A01 T03010113  RH  032%=      5-min Rain = 0
KLES 110330Z 15009KT 30/11 A2996 RMK A01 T03020112  RH  032%=      5-min Rain = 0
KLES 110335Z 16009KT 30/11 A2997 RMK A01 T03010113  RH  032%=      5-min Rain = 0
KLES 110340Z 16009KT 30/11 A2997 RMK A01 T03000113  RH  033%=      5-min Rain = 0
KLES 110345Z 15009KT 30/11 A2997 RMK A01 T02990113  RH  033%=      5-min Rain = 0
KLES 110350Z 15009KT 30/11 A2997 RMK A01 T03000113  RH  033%=      5-min Rain = 0
KLES 110355Z 16010KT 30/11 A2998 RMK A01 T03000114  RH  033%=      5-min Rain = 0
KLES 110400Z 16009KT 30/11 A2998 RMK A01 T03010114  RH  033%=      5-min Rain = 0
KLES 110405Z 15009KT 30/11 A2998 RMK A01 T03000114  RH  033%=      5-min Rain = 0
KLES 110410Z 16009KT 30/11 A2998 RMK A01 T02990113  RH  033%=      5-min Rain = 0
KLES 110415Z 16010KT 30/11 A2998 RMK A01 T02990114  RH  033%=      5-min Rain = 0
KLES 110420Z 16009KT 30/12 A2998 RMK A01 T02980115  RH  034%=      5-min Rain = 0
KLES 110425Z 16010KT 30/12 A2998 RMK A01 T02960116  RH  034%=      5-min Rain = 0
KLES 110430Z 16011KT 30/12 A2998 RMK A01 T02960116  RH  034%=      5-min Rain = 0
KLES 110435Z 17011KT 30/12 A2998 RMK A01 T02950117  RH  034%=      5-min Rain = 0
KLES 110440Z 17011KT 29/12 A2998 RMK A01 T02940117  RH  035%=      5-min Rain = 0
KLES 110445Z 17011KT 29/12 A2998 RMK A01 T02930118  RH  035%=      5-min Rain = 0
KLES 110450Z 17012KT 29/12 A2998 RMK A01 T02930117  RH  035%=      5-min Rain = 0
KLES 110455Z 17012KT 29/12 A2998 RMK A01 T02930118  RH  035%=      5-min Rain = 0

Page generated in 0.0372 seconds.